Country
Station

 

Weather  for  Lann Bihoue  -  France    France

  
10 °C (50 °F)
    
 
 

Current METAR for Lann Bihoue is :

LFRH 111900Z AUTO 15011KT 9999 BKN024 OVC210 10/07 Q1020 NOSIG

 

This is a report for Lann Bihoue - France.
 
The report was made 26 minutes ago, at 19:00 UTC .
The wind was blowing at a speed of 5.7 meters per second (12.7 miles per hour) from south/southeast (150°).
 
The temperature was 10 °C (50 °F), with a dew-point at 7 °C (45 °F).
The atmospheric pressure was 1020 hPa (30.12 inHg).
The relative humidity was 81.6%.
 
There were broken clouds at a height of 732 meters (2400 feet). The sky was overcast from a height of 6401 meter (21000 feet)
 
The overall visibility was greater than 10 kilometers (6.2 miles).
 

 
 
 
 

Country :   A   B   C   D   E   F   G   H   I   J   K   L   M   N   O   P   Q   R   S   T   U   V   W   Y   Z

 

Site Info  |  Disclaimer  |  Credits  |  Privacy
Contact us  |  Add to favorites
© 2013-2018 METARs - All rights reserved